sensor_id;sensor_type;location;lat;lon;timestamp;pressure;altitude;pressure_sealevel;temperature;humidity
39267;BME280;24967;51.154;13.812;2022-07-22T00:01:08;99716.44;;;22.42;69.35
39267;BME280;24967;51.154;13.812;2022-07-22T00:03:35;99727.78;;;22.32;69.38
39267;BME280;24967;51.154;13.812;2022-07-22T00:06:03;99728.69;;;22.26;69.13
39267;BME280;24967;51.154;13.812;2022-07-22T00:08:30;99733.53;;;22.17;68.46
39267;BME280;24967;51.154;13.812;2022-07-22T00:10:56;99733.81;;;22.09;67.71
39267;BME280;24967;51.154;13.812;2022-07-22T00:13:23;99731.81;;;21.98;66.64
39267;BME280;24967;51.154;13.812;2022-07-22T00:15:49;99736.44;;;21.91;67.20
39267;BME280;24967;51.154;13.812;2022-07-22T00:18:16;99738.75;;;21.87;67.35
39267;BME280;24967;51.154;13.812;2022-07-22T00:20:42;99734.00;;;21.83;67.44
39267;BME280;24967;51.154;13.812;2022-07-22T00:23:10;99736.72;;;21.83;67.79
39267;BME280;24967;51.154;13.812;2022-07-22T00:25:37;99733.38;;;21.81;67.81
39267;BME280;24967;51.154;13.812;2022-07-22T00:28:04;99743.81;;;21.77;68.11
39267;BME280;24967;51.154;13.812;2022-07-22T00:30:30;99736.97;;;21.75;68.02
39267;BME280;24967;51.154;13.812;2022-07-22T00:32:57;99742.81;;;21.71;67.97
39267;BME280;24967;51.154;13.812;2022-07-22T00:35:23;99741.59;;;21.67;67.90
39267;BME280;24967;51.154;13.812;2022-07-22T00:37:50;99735.81;;;21.64;68.25
39267;BME280;24967;51.154;13.812;2022-07-22T00:40:18;99743.50;;;21.60;68.51
39267;BME280;24967;51.154;13.812;2022-07-22T00:42:44;99741.66;;;21.54;67.46
39267;BME280;24967;51.154;13.812;2022-07-22T00:45:11;99742.09;;;21.51;67.04
39267;BME280;24967;51.154;13.812;2022-07-22T00:47:37;99751.34;;;21.37;67.87
39267;BME280;24967;51.154;13.812;2022-07-22T00:50:05;99744.75;;;21.19;68.46
39267;BME280;24967;51.154;13.812;2022-07-22T00:52:33;99751.81;;;21.14;68.90
39267;BME280;24967;51.154;13.812;2022-07-22T00:55:00;99748.72;;;21.10;69.11
39267;BME280;24967;51.154;13.812;2022-07-22T00:57:28;99750.38;;;21.11;69.09
39267;BME280;24967;51.154;13.812;2022-07-22T00:59:55;99745.19;;;21.10;69.19
39267;BME280;24967;51.154;13.812;2022-07-22T01:02:21;99737.53;;;21.07;69.26
39267;BME280;24967;51.154;13.812;2022-07-22T01:04:48;99736.06;;;21.04;68.91
39267;BME280;24967;51.154;13.812;2022-07-22T01:07:14;99736.69;;;20.99;69.11
39267;BME280;24967;51.154;13.812;2022-07-22T01:09:42;99743.38;;;20.97;68.85
39267;BME280;24967;51.154;13.812;2022-07-22T01:12:09;99744.84;;;20.93;68.99
39267;BME280;24967;51.154;13.812;2022-07-22T01:14:37;99743.19;;;20.92;69.35
39267;BME280;24967;51.154;13.812;2022-07-22T01:17:04;99747.53;;;20.93;69.36
39267;BME280;24967;51.154;13.812;2022-07-22T01:19:30;99744.84;;;20.93;69.51
39267;BME280;24967;51.154;13.812;2022-07-22T01:21:58;99740.28;;;20.87;69.71
39267;BME280;24967;51.154;13.812;2022-07-22T01:24:24;99739.25;;;20.81;69.37
39267;BME280;24967;51.154;13.812;2022-07-22T01:26:51;99735.31;;;20.84;69.30
39267;BME280;24967;51.154;13.812;2022-07-22T01:29:17;99736.34;;;20.83;69.04
39267;BME280;24967;51.154;13.812;2022-07-22T01:31:44;99744.25;;;20.77;69.08
39267;BME280;24967;51.154;13.812;2022-07-22T01:34:10;99742.63;;;20.76;69.40
39267;BME280;24967;51.154;13.812;2022-07-22T01:36:37;99749.88;;;20.76;69.48
39267;BME280;24967;51.154;13.812;2022-07-22T01:39:05;99743.63;;;20.75;69.58
39267;BME280;24967;51.154;13.812;2022-07-22T01:41:31;99748.00;;;20.76;69.67
39267;BME280;24967;51.154;13.812;2022-07-22T01:43:58;99751.13;;;20.80;69.87
39267;BME280;24967;51.154;13.812;2022-07-22T01:46:24;99753.41;;;20.76;70.08
39267;BME280;24967;51.154;13.812;2022-07-22T01:48:52;99746.56;;;20.74;70.25
39267;BME280;24967;51.154;13.812;2022-07-22T01:51:19;99752.16;;;20.72;70.34
39267;BME280;24967;51.154;13.812;2022-07-22T01:53:46;99744.72;;;20.68;70.54
39267;BME280;24967;51.154;13.812;2022-07-22T01:56:14;99745.53;;;20.68;70.45
39267;BME280;24967;51.154;13.812;2022-07-22T01:58:40;99749.47;;;20.66;70.62
39267;BME280;24967;51.154;13.812;2022-07-22T02:01:07;99748.88;;;20.64;70.72
39267;BME280;24967;51.154;13.812;2022-07-22T02:03:34;99749.06;;;20.62;70.75
39267;BME280;24967;51.154;13.812;2022-07-22T02:06:00;99742.03;;;20.61;70.68
39267;BME280;24967;51.154;13.812;2022-07-22T02:08:27;99744.72;;;20.61;70.76
39267;BME280;24967;51.154;13.812;2022-07-22T02:10:54;99745.94;;;20.65;70.77
39267;BME280;24967;51.154;13.812;2022-07-22T02:13:22;99745.56;;;20.62;70.69
39267;BME280;24967;51.154;13.812;2022-07-22T02:15:48;99747.63;;;20.59;70.86
39267;BME280;24967;51.154;13.812;2022-07-22T02:18:16;99738.72;;;20.52;71.12
39267;BME280;24967;51.154;13.812;2022-07-22T02:20:44;99748.84;;;20.50;71.03
39267;BME280;24967;51.154;13.812;2022-07-22T02:23:11;99749.06;;;20.49;71.09
39267;BME280;24967;51.154;13.812;2022-07-22T02:25:38;99741.81;;;20.49;71.07
39267;BME280;24967;51.154;13.812;2022-07-22T02:28:06;99755.31;;;20.49;70.96
39267;BME280;24967;51.154;13.812;2022-07-22T02:30:33;99752.81;;;20.48;71.19
39267;BME280;24967;51.154;13.812;2022-07-22T02:33:00;99754.47;;;20.49;71.14
39267;BME280;24967;51.154;13.812;2022-07-22T02:35:27;99757.78;;;20.51;71.17
39267;BME280;24967;51.154;13.812;2022-07-22T02:37:54;99753.03;;;20.46;70.87
39267;BME280;24967;51.154;13.812;2022-07-22T02:40:20;99760.06;;;20.47;70.85
39267;BME280;24967;51.154;13.812;2022-07-22T02:42:47;99759.66;;;20.44;70.75
39267;BME280;24967;51.154;13.812;2022-07-22T02:45:13;99764.25;;;20.36;71.47
39267;BME280;24967;51.154;13.812;2022-07-22T02:47:51;99764.03;;;20.38;71.28
39267;BME280;24967;51.154;13.812;2022-07-22T02:50:19;99766.72;;;20.38;71.15
39267;BME280;24967;51.154;13.812;2022-07-22T02:52:46;99768.38;;;20.39;71.03
39267;BME280;24967;51.154;13.812;2022-07-22T02:55:14;99770.88;;;20.41;71.17
39267;BME280;24967;51.154;13.812;2022-07-22T02:57:40;99766.31;;;20.41;71.29
39267;BME280;24967;51.154;13.812;2022-07-22T03:00:08;99775.25;;;20.42;70.96
39267;BME280;24967;51.154;13.812;2022-07-22T03:02:36;99767.78;;;20.37;71.05
39267;BME280;24967;51.154;13.812;2022-07-22T03:05:05;99783.75;;;20.39;71.08
39267;BME280;24967;51.154;13.812;2022-07-22T03:07:32;99779.00;;;20.34;71.16
39267;BME280;24967;51.154;13.812;2022-07-22T03:09:58;99775.66;;;20.32;71.26
39267;BME280;24967;51.154;13.812;2022-07-22T03:12:25;99782.94;;;20.31;71.23
39267;BME280;24967;51.154;13.812;2022-07-22T03:14:51;99788.53;;;20.30;71.27
39267;BME280;24967;51.154;13.812;2022-07-22T03:17:18;99791.88;;;20.25;71.44
39267;BME280;24967;51.154;13.812;2022-07-22T03:19:44;99795.63;;;20.24;71.45
39267;BME280;24967;51.154;13.812;2022-07-22T03:22:13;99797.28;;;20.25;71.73
39267;BME280;24967;51.154;13.812;2022-07-22T03:24:39;99805.13;;;20.27;71.65
39267;BME280;24967;51.154;13.812;2022-07-22T03:27:06;99791.47;;;20.22;71.48
39267;BME280;24967;51.154;13.812;2022-07-22T03:29:32;99802.44;;;20.20;71.45
39267;BME280;24967;51.154;13.812;2022-07-22T03:31:59;99802.03;;;20.17;71.47
39267;BME280;24967;51.154;13.812;2022-07-22T03:34:25;99805.97;;;20.14;71.57
39267;BME280;24967;51.154;13.812;2022-07-22T03:36:52;99800.97;;;20.11;71.55
39267;BME280;24967;51.154;13.812;2022-07-22T03:39:20;99806.19;;;20.12;71.60
39267;BME280;24967;51.154;13.812;2022-07-22T03:41:46;99806.38;;;20.11;71.55
39267;BME280;24967;51.154;13.812;2022-07-22T03:44:13;99795.59;;;20.11;71.83
39267;BME280;24967;51.154;13.812;2022-07-22T03:46:39;99802.44;;;20.13;71.80
39267;BME280;24967;51.154;13.812;2022-07-22T03:49:06;99799.53;;;20.08;72.21
39267;BME280;24967;51.154;13.812;2022-07-22T03:51:32;99795.81;;;20.09;72.01
39267;BME280;24967;51.154;13.812;2022-07-22T03:53:59;99796.63;;;20.10;72.22
39267;BME280;24967;51.154;13.812;2022-07-22T03:56:27;99791.25;;;20.10;72.18
39267;BME280;24967;51.154;13.812;2022-07-22T03:58:53;99792.06;;;20.10;72.44
39267;BME280;24967;51.154;13.812;2022-07-22T04:01:20;99794.75;;;20.10;72.41
39267;BME280;24967;51.154;13.812;2022-07-22T04:03:48;99797.06;;;20.13;72.60
39267;BME280;24967;51.154;13.812;2022-07-22T04:06:14;99788.72;;;20.08;73.52
39267;BME280;24967;51.154;13.812;2022-07-22T04:08:41;99801.63;;;20.13;73.46
39267;BME280;24967;51.154;13.812;2022-07-22T04:11:07;99795.41;;;20.19;73.26
39267;BME280;24967;51.154;13.812;2022-07-22T04:13:35;99796.63;;;20.23;73.31
39267;BME280;24967;51.154;13.812;2022-07-22T04:16:02;99805.38;;;20.25;73.30
39267;BME280;24967;51.154;13.812;2022-07-22T04:18:30;99799.56;;;20.28;73.28
39267;BME280;24967;51.154;13.812;2022-07-22T04:20:56;99804.72;;;20.30;73.33
39267;BME280;24967;51.154;13.812;2022-07-22T04:23:23;99802.03;;;20.30;73.75
39267;BME280;24967;51.154;13.812;2022-07-22T04:25:49;99797.66;;;20.35;73.62
39267;BME280;24967;51.154;13.812;2022-07-22T04:28:16;99806.00;;;20.41;73.34
39267;BME280;24967;51.154;13.812;2022-07-22T04:30:44;99803.09;;;20.49;73.13
39267;BME280;24967;51.154;13.812;2022-07-22T04:33:10;99804.13;;;20.54;72.95
39267;BME280;24967;51.154;13.812;2022-07-22T04:35:37;99803.50;;;20.59;72.98
39267;BME280;24967;51.154;13.812;2022-07-22T04:38:03;99807.25;;;20.65;73.06
39267;BME280;24967;51.154;13.812;2022-07-22T04:40:30;99804.75;;;20.70;73.00
39267;BME280;24967;51.154;13.812;2022-07-22T04:42:56;99812.84;;;20.76;72.92
39267;BME280;24967;51.154;13.812;2022-07-22T04:45:23;99810.34;;;20.68;73.97
39267;BME280;24967;51.154;13.812;2022-07-22T04:47:51;99803.28;;;20.80;73.90
39267;BME280;24967;51.154;13.812;2022-07-22T04:50:17;99807.44;;;20.76;74.23
39267;BME280;24967;51.154;13.812;2022-07-22T04:52:44;99801.38;;;20.88;74.22
39267;BME280;24967;51.154;13.812;2022-07-22T04:55:10;99798.69;;;20.94;74.43
39267;BME280;24967;51.154;13.812;2022-07-22T04:57:37;99802.19;;;21.01;74.17
39267;BME280;24967;51.154;13.812;2022-07-22T05:00:04;99804.41;;;21.18;73.62
39267;BME280;24967;51.154;13.812;2022-07-22T05:02:31;99801.63;;;21.44;72.06
39267;BME280;24967;51.154;13.812;2022-07-22T05:04:59;99802.06;;;21.41;72.06
39267;BME280;24967;51.154;13.812;2022-07-22T05:07:25;99801.47;;;21.39;72.75
39267;BME280;24967;51.154;13.812;2022-07-22T05:09:51;99803.56;;;21.31;72.42
39267;BME280;24967;51.154;13.812;2022-07-22T05:12:18;99807.47;;;21.41;71.86
39267;BME280;24967;51.154;13.812;2022-07-22T05:14:44;99805.44;;;21.37;72.37
39267;BME280;24967;51.154;13.812;2022-07-22T05:17:12;99803.91;;;21.47;71.66
39267;BME280;24967;51.154;13.812;2022-07-22T05:19:39;99803.28;;;21.52;72.24
39267;BME280;24967;51.154;13.812;2022-07-22T05:22:07;99810.34;;;21.53;72.07
39267;BME280;24967;51.154;13.812;2022-07-22T05:24:34;99810.09;;;21.61;71.89
39267;BME280;24967;51.154;13.812;2022-07-22T05:27:01;99801.25;;;21.79;71.88
39267;BME280;24967;51.154;13.812;2022-07-22T05:29:27;99813.97;;;22.10;71.08
39267;BME280;24967;51.154;13.812;2022-07-22T05:31:54;99804.16;;;22.41;69.31
39267;BME280;24967;51.154;13.812;2022-07-22T05:34:20;99809.19;;;22.62;70.56
39267;BME280;24967;51.154;13.812;2022-07-22T05:36:47;99803.53;;;23.26;68.97
39267;BME280;24967;51.154;13.812;2022-07-22T05:39:15;99799.78;;;24.06;65.46
39267;BME280;24967;51.154;13.812;2022-07-22T05:41:42;99795.13;;;24.36;63.03
39267;BME280;24967;51.154;13.812;2022-07-22T05:44:08;99801.91;;;24.69;61.41
39267;BME280;24967;51.154;13.812;2022-07-22T05:46:35;99801.97;;;24.98;59.67
39267;BME280;24967;51.154;13.812;2022-07-22T05:49:01;99806.00;;;24.72;60.20
39267;BME280;24967;51.154;13.812;2022-07-22T05:51:27;99804.47;;;24.52;60.68
39267;BME280;24967;51.154;13.812;2022-07-22T05:53:54;99796.09;;;24.42;60.30
39267;BME280;24967;51.154;13.812;2022-07-22T05:56:22;99792.19;;;24.50;59.45
39267;BME280;24967;51.154;13.812;2022-07-22T05:58:48;99795.13;;;24.95;59.03
39267;BME280;24967;51.154;13.812;2022-07-22T06:01:15;99801.78;;;24.87;58.97
39267;BME280;24967;51.154;13.812;2022-07-22T06:03:41;99793.84;;;24.86;58.76
39267;BME280;24967;51.154;13.812;2022-07-22T06:06:08;99793.69;;;24.92;57.94
39267;BME280;24967;51.154;13.812;2022-07-22T06:08:35;99792.19;;;24.61;59.17
39267;BME280;24967;51.154;13.812;2022-07-22T06:11:02;99789.94;;;24.70;58.90
39267;BME280;24967;51.154;13.812;2022-07-22T06:13:30;99788.66;;;24.73;59.26
39267;BME280;24967;51.154;13.812;2022-07-22T06:15:56;99790.41;;;24.90;58.59
39267;BME280;24967;51.154;13.812;2022-07-22T06:18:23;99786.81;;;25.25;58.11
39267;BME280;24967;51.154;13.812;2022-07-22T06:20:49;99791.56;;;25.18;57.83
39267;BME280;24967;51.154;13.812;2022-07-22T06:23:15;99792.09;;;25.44;57.30
39267;BME280;24967;51.154;13.812;2022-07-22T06:25:42;99796.66;;;25.55;56.65
39267;BME280;24967;51.154;13.812;2022-07-22T06:28:09;99797.53;;;25.44;56.57
39267;BME280;24967;51.154;13.812;2022-07-22T06:30:37;99796.06;;;25.53;56.41
39267;BME280;24967;51.154;13.812;2022-07-22T06:33:04;99800.53;;;25.59;56.19
39267;BME280;24967;51.154;13.812;2022-07-22T06:35:30;99804.53;;;25.40;56.55
39267;BME280;24967;51.154;13.812;2022-07-22T06:37:57;99803.75;;;25.56;56.66
39267;BME280;24967;51.154;13.812;2022-07-22T06:40:24;99800.94;;;25.51;56.91
39267;BME280;24967;51.154;13.812;2022-07-22T06:42:50;99805.84;;;25.37;56.69
39267;BME280;24967;51.154;13.812;2022-07-22T06:45:17;99801.81;;;25.68;55.96
39267;BME280;24967;51.154;13.812;2022-07-22T06:47:44;99796.06;;;25.24;56.93
39267;BME280;24967;51.154;13.812;2022-07-22T06:50:12;99801.31;;;25.43;56.09
39267;BME280;24967;51.154;13.812;2022-07-22T06:52:39;99805.84;;;25.37;56.42
39267;BME280;24967;51.154;13.812;2022-07-22T06:55:08;99794.75;;;25.27;56.69
39267;BME280;24967;51.154;13.812;2022-07-22T06:57:35;99793.16;;;25.43;56.53
39267;BME280;24967;51.154;13.812;2022-07-22T07:00:03;99804.72;;;25.50;56.38
39267;BME280;24967;51.154;13.812;2022-07-22T07:02:30;99797.38;;;24.98;57.14
39267;BME280;24967;51.154;13.812;2022-07-22T07:04:58;99796.41;;;24.92;57.25
39267;BME280;24967;51.154;13.812;2022-07-22T07:07:25;99800.94;;;24.75;58.26
39267;BME280;24967;51.154;13.812;2022-07-22T07:09:52;99789.69;;;24.95;58.17
39267;BME280;24967;51.154;13.812;2022-07-22T07:12:18;99793.03;;;25.38;57.50
39267;BME280;24967;51.154;13.812;2022-07-22T07:14:45;99789.00;;;25.69;56.84
39267;BME280;24967;51.154;13.812;2022-07-22T07:17:12;99792.63;;;25.86;56.27
39267;BME280;24967;51.154;13.812;2022-07-22T07:19:40;99790.50;;;25.88;55.84
39267;BME280;24967;51.154;13.812;2022-07-22T07:22:08;99791.91;;;25.91;55.27
39267;BME280;24967;51.154;13.812;2022-07-22T07:24:34;99793.22;;;25.88;55.49
39267;BME280;24967;51.154;13.812;2022-07-22T07:27:01;99789.19;;;25.22;55.78
39267;BME280;24967;51.154;13.812;2022-07-22T07:29:27;99787.44;;;25.16;55.99
39267;BME280;24967;51.154;13.812;2022-07-22T07:31:54;99790.75;;;25.06;56.13
39267;BME280;24967;51.154;13.812;2022-07-22T07:34:20;99791.09;;;25.09;57.02
39267;BME280;24967;51.154;13.812;2022-07-22T07:36:47;99781.94;;;25.39;56.57
39267;BME280;24967;51.154;13.812;2022-07-22T07:39:14;99790.69;;;25.29;56.74
39267;BME280;24967;51.154;13.812;2022-07-22T07:41:41;99788.84;;;25.30;55.94
39267;BME280;24967;51.154;13.812;2022-07-22T07:44:07;99783.06;;;25.15;56.17
39267;BME280;24967;51.154;13.812;2022-07-22T07:46:34;99781.66;;;25.00;56.82
39267;BME280;24967;51.154;13.812;2022-07-22T07:49:00;99783.53;;;25.11;56.19
39267;BME280;24967;51.154;13.812;2022-07-22T07:51:27;99782.97;;;24.86;56.49
39267;BME280;24967;51.154;13.812;2022-07-22T07:53:53;99780.22;;;25.09;56.68
39267;BME280;24967;51.154;13.812;2022-07-22T07:56:21;99778.81;;;24.95;57.12
39267;BME280;24967;51.154;13.812;2022-07-22T07:58:51;99778.94;;;25.00;56.92
39267;BME280;24967;51.154;13.812;2022-07-22T08:01:17;99776.06;;;25.19;56.80
39267;BME280;24967;51.154;13.812;2022-07-22T08:03:44;99784.84;;;25.49;56.30
39267;BME280;24967;51.154;13.812;2022-07-22T08:06:10;99779.25;;;25.27;55.75
39267;BME280;24967;51.154;13.812;2022-07-22T08:08:37;99780.25;;;25.38;56.16
39267;BME280;24967;51.154;13.812;2022-07-22T08:11:03;99779.81;;;25.29;56.10
39267;BME280;24967;51.154;13.812;2022-07-22T08:13:31;99789.78;;;25.24;56.35
39267;BME280;24967;51.154;13.812;2022-07-22T08:15:58;99787.88;;;25.36;56.54
39267;BME280;24967;51.154;13.812;2022-07-22T08:18:25;99788.88;;;25.47;55.34
39267;BME280;24967;51.154;13.812;2022-07-22T08:20:52;99784.00;;;25.77;54.58
39267;BME280;24967;51.154;13.812;2022-07-22T08:23:18;99788.28;;;25.85;54.76
39267;BME280;24967;51.154;13.812;2022-07-22T08:25:45;99785.91;;;26.06;54.12
39267;BME280;24967;51.154;13.812;2022-07-22T08:28:11;99784.94;;;26.12;53.79
39267;BME280;24967;51.154;13.812;2022-07-22T08:30:39;99779.28;;;26.01;53.99
39267;BME280;24967;51.154;13.812;2022-07-22T08:33:06;99784.84;;;26.07;53.97
39267;BME280;24967;51.154;13.812;2022-07-22T08:35:33;99784.25;;;26.38;54.69
39267;BME280;24967;51.154;13.812;2022-07-22T08:37:59;99779.66;;;26.22;53.89
39267;BME280;24967;51.154;13.812;2022-07-22T08:40:26;99775.38;;;26.60;53.45
39267;BME280;24967;51.154;13.812;2022-07-22T08:42:53;99778.34;;;26.58;53.69
39267;BME280;24967;51.154;13.812;2022-07-22T08:45:21;99784.94;;;26.62;52.69
39267;BME280;24967;51.154;13.812;2022-07-22T08:47:51;99780.16;;;26.53;52.13
39267;BME280;24967;51.154;13.812;2022-07-22T08:50:18;99777.00;;;26.27;53.44
39267;BME280;24967;51.154;13.812;2022-07-22T08:52:45;99767.75;;;26.45;53.67
39267;BME280;24967;51.154;13.812;2022-07-22T08:55:11;99771.28;;;26.62;53.03
39267;BME280;24967;51.154;13.812;2022-07-22T08:57:44;99771.06;;;27.03;52.94
39267;BME280;24967;51.154;13.812;2022-07-22T09:00:12;99770.34;;;27.12;51.54
39267;BME280;24967;51.154;13.812;2022-07-22T09:02:40;99777.19;;;26.93;51.22
39267;BME280;24967;51.154;13.812;2022-07-22T09:05:09;99775.09;;;27.00;51.25
39267;BME280;24967;51.154;13.812;2022-07-22T09:07:37;99781.09;;;26.80;51.46
39267;BME280;24967;51.154;13.812;2022-07-22T09:10:07;99763.56;;;26.54;51.41
39267;BME280;24967;51.154;13.812;2022-07-22T09:12:34;99777.66;;;26.68;51.62
39267;BME280;24967;51.154;13.812;2022-07-22T09:15:02;99770.75;;;26.60;51.86
39267;BME280;24967;51.154;13.812;2022-07-22T09:17:30;99769.75;;;26.66;51.72
39267;BME280;24967;51.154;13.812;2022-07-22T09:19:59;99769.22;;;26.69;50.90
39267;BME280;24967;51.154;13.812;2022-07-22T09:22:37;99775.97;;;26.84;51.23
39267;BME280;24967;51.154;13.812;2022-07-22T09:25:24;99764.31;;;26.88;50.34
39267;BME280;24967;51.154;13.812;2022-07-22T09:27:53;99770.44;;;26.79;50.99
39267;BME280;24967;51.154;13.812;2022-07-22T09:30:21;99764.53;;;26.87;50.42
39267;BME280;24967;51.154;13.812;2022-07-22T09:32:49;99768.22;;;26.76;50.32
39267;BME280;24967;51.154;13.812;2022-07-22T09:35:16;99765.41;;;26.87;49.77
39267;BME280;24967;51.154;13.812;2022-07-22T09:37:50;99759.28;;;26.80;50.22
39267;BME280;24967;51.154;13.812;2022-07-22T09:40:19;99761.25;;;26.85;50.64
39267;BME280;24967;51.154;13.812;2022-07-22T09:42:48;99766.25;;;26.71;50.58
39267;BME280;24967;51.154;13.812;2022-07-22T09:45:15;99769.91;;;26.60;51.04
39267;BME280;24967;51.154;13.812;2022-07-22T09:47:42;99762.38;;;26.50;51.28
39267;BME280;24967;51.154;13.812;2022-07-22T09:50:17;99759.25;;;26.58;51.04
39267;BME280;24967;51.154;13.812;2022-07-22T09:52:45;99757.06;;;26.77;51.22
39267;BME280;24967;51.154;13.812;2022-07-22T09:55:15;99760.53;;;27.11;51.07
39267;BME280;24967;51.154;13.812;2022-07-22T09:57:42;99763.81;;;26.91;50.66
39267;BME280;24967;51.154;13.812;2022-07-22T10:00:10;99762.34;;;27.06;50.06
39267;BME280;24967;51.154;13.812;2022-07-22T10:02:41;99749.84;;;26.88;49.75
39267;BME280;24967;51.154;13.812;2022-07-22T10:05:12;99756.59;;;27.24;48.69
39267;BME280;24967;51.154;13.812;2022-07-22T10:07:40;99756.00;;;27.44;47.40
39267;BME280;24967;51.154;13.812;2022-07-22T10:10:09;99748.69;;;27.77;47.17
39267;BME280;24967;51.154;13.812;2022-07-22T10:12:37;99741.47;;;28.25;46.34
39267;BME280;24967;51.154;13.812;2022-07-22T10:15:05;99750.16;;;28.17;45.58
39267;BME280;24967;51.154;13.812;2022-07-22T10:17:33;99751.81;;;27.85;45.60
39267;BME280;24967;51.154;13.812;2022-07-22T10:20:00;99749.88;;;27.59;46.76
39267;BME280;24967;51.154;13.812;2022-07-22T10:22:46;99746.47;;;27.74;46.75
39267;BME280;24967;51.154;13.812;2022-07-22T10:25:15;99749.22;;;27.74;46.48
39267;BME280;24967;51.154;13.812;2022-07-22T10:27:46;99741.44;;;27.60;45.51
39267;BME280;24967;51.154;13.812;2022-07-22T10:30:14;99738.03;;;27.48;47.06
39267;BME280;24967;51.154;13.812;2022-07-22T10:32:41;99741.81;;;27.20;46.91
39267;BME280;24967;51.154;13.812;2022-07-22T10:35:24;99740.41;;;27.39;46.62
39267;BME280;24967;51.154;13.812;2022-07-22T10:37:54;99741.75;;;27.64;47.16
39267;BME280;24967;51.154;13.812;2022-07-22T10:40:24;99748.59;;;27.67;46.90
39267;BME280;24967;51.154;13.812;2022-07-22T10:43:04;99752.16;;;27.67;46.72
39267;BME280;24967;51.154;13.812;2022-07-22T10:45:33;99747.41;;;28.12;46.77
39267;BME280;24967;51.154;13.812;2022-07-22T10:48:02;99747.13;;;28.13;45.90
39267;BME280;24967;51.154;13.812;2022-07-22T10:50:50;99749.72;;;28.30;44.59
39267;BME280;24967;51.154;13.812;2022-07-22T10:53:21;99755.66;;;28.22;44.28
39267;BME280;24967;51.154;13.812;2022-07-22T10:56:04;99755.22;;;28.35;44.62
39267;BME280;24967;51.154;13.812;2022-07-22T10:58:49;99751.66;;;28.29;45.48
39267;BME280;24967;51.154;13.812;2022-07-22T11:01:19;99750.00;;;28.66;44.22
39267;BME280;24967;51.154;13.812;2022-07-22T11:03:48;99748.81;;;28.99;43.88
39267;BME280;24967;51.154;13.812;2022-07-22T11:06:25;99747.22;;;29.13;42.65
39267;BME280;24967;51.154;13.812;2022-07-22T11:08:53;99750.25;;;29.12;42.58
39267;BME280;24967;51.154;13.812;2022-07-22T11:11:39;99740.97;;;28.70;43.49
39267;BME280;24967;51.154;13.812;2022-07-22T11:14:23;99748.06;;;29.09;44.70
39267;BME280;24967;51.154;13.812;2022-07-22T11:16:53;99737.91;;;29.09;44.30
39267;BME280;24967;51.154;13.812;2022-07-22T11:19:22;99731.69;;;29.34;43.64
39267;BME280;24967;51.154;13.812;2022-07-22T11:21:50;99731.41;;;29.31;44.10
39267;BME280;24967;51.154;13.812;2022-07-22T11:24:18;99730.41;;;29.57;42.77
39267;BME280;24967;51.154;13.812;2022-07-22T11:26:46;99730.09;;;29.59;42.66
39267;BME280;24967;51.154;13.812;2022-07-22T11:29:18;99727.69;;;29.62;42.30
39267;BME280;24967;51.154;13.812;2022-07-22T11:31:44;99718.25;;;29.22;43.14
39267;BME280;24967;51.154;13.812;2022-07-22T11:34:13;99734.47;;;29.39;43.51
39267;BME280;24967;51.154;13.812;2022-07-22T11:36:42;99717.19;;;29.24;43.22
39267;BME280;24967;51.154;13.812;2022-07-22T11:39:11;99715.81;;;29.26;42.83
39267;BME280;24967;51.154;13.812;2022-07-22T11:41:39;99711.75;;;29.54;42.63
39267;BME280;24967;51.154;13.812;2022-07-22T11:44:06;99716.66;;;29.42;42.09
39267;BME280;24967;51.154;13.812;2022-07-22T11:46:39;99710.41;;;29.57;42.31
39267;BME280;24967;51.154;13.812;2022-07-22T11:49:07;99701.13;;;29.63;42.04
39267;BME280;24967;51.154;13.812;2022-07-22T11:51:36;99710.16;;;29.89;40.82
39267;BME280;24967;51.154;13.812;2022-07-22T11:54:04;99711.25;;;29.83;40.04
39267;BME280;24967;51.154;13.812;2022-07-22T11:56:32;99698.06;;;29.49;40.96
39267;BME280;24967;51.154;13.812;2022-07-22T11:58:59;99696.16;;;29.44;41.26
39267;BME280;24967;51.154;13.812;2022-07-22T12:01:31;99696.09;;;29.34;40.51
39267;BME280;24967;51.154;13.812;2022-07-22T12:04:00;99677.78;;;29.40;40.83
39267;BME280;24967;51.154;13.812;2022-07-22T12:06:28;99682.69;;;29.28;40.90
39267;BME280;24967;51.154;13.812;2022-07-22T12:09:03;99689.56;;;29.35;41.24
39267;BME280;24967;51.154;13.812;2022-07-22T12:11:30;99674.25;;;29.65;41.10
39267;BME280;24967;51.154;13.812;2022-07-22T12:14:04;99684.97;;;29.82;41.01
39267;BME280;24967;51.154;13.812;2022-07-22T12:16:31;99682.75;;;30.09;41.53
39267;BME280;24967;51.154;13.812;2022-07-22T12:19:00;99676.16;;;30.26;40.94
39267;BME280;24967;51.154;13.812;2022-07-22T12:21:28;99676.16;;;30.16;39.65
39267;BME280;24967;51.154;13.812;2022-07-22T12:23:56;99677.00;;;30.11;39.20
39267;BME280;24967;51.154;13.812;2022-07-22T12:26:43;99673.66;;;30.50;39.22
39267;BME280;24967;51.154;13.812;2022-07-22T12:29:15;99676.38;;;30.50;39.35
39267;BME280;24967;51.154;13.812;2022-07-22T12:31:42;99674.69;;;30.69;39.69
39267;BME280;24967;51.154;13.812;2022-07-22T12:34:10;99675.81;;;30.53;38.42
39267;BME280;24967;51.154;13.812;2022-07-22T12:36:37;99672.63;;;30.05;39.60
39267;BME280;24967;51.154;13.812;2022-07-22T12:39:11;99661.38;;;30.32;39.39
39267;BME280;24967;51.154;13.812;2022-07-22T12:41:45;99664.34;;;30.41;38.90
39267;BME280;24967;51.154;13.812;2022-07-22T12:44:18;99663.53;;;30.45;39.49
39267;BME280;24967;51.154;13.812;2022-07-22T12:46:46;99669.59;;;30.01;38.59
39267;BME280;24967;51.154;13.812;2022-07-22T12:49:15;99666.31;;;30.25;37.82
39267;BME280;24967;51.154;13.812;2022-07-22T12:51:42;99651.19;;;30.48;37.94
39267;BME280;24967;51.154;13.812;2022-07-22T12:54:29;99643.47;;;30.60;37.43